sensor_id;sensor_type;location;lat;lon;timestamp;P1;durP1;ratioP1;P2;durP2;ratioP2
52776;SDS011;38656;54.260;20.822;2023-08-08T00:01:32;9.55;;;3.10;;
52776;SDS011;38656;54.260;20.822;2023-08-08T00:04:00;10.48;;;3.28;;
52776;SDS011;38656;54.260;20.822;2023-08-08T00:06:26;6.57;;;2.17;;
52776;SDS011;38656;54.260;20.822;2023-08-08T00:08:52;6.00;;;2.50;;
52776;SDS011;38656;54.260;20.822;2023-08-08T00:11:18;5.32;;;2.97;;
52776;SDS011;38656;54.260;20.822;2023-08-08T00:13:44;8.18;;;2.90;;
52776;SDS011;38656;54.260;20.822;2023-08-08T00:16:10;8.23;;;2.67;;
52776;SDS011;38656;54.260;20.822;2023-08-08T00:18:36;13.65;;;2.80;;
52776;SDS011;38656;54.260;20.822;2023-08-08T00:21:02;16.08;;;3.97;;
52776;SDS011;38656;54.260;20.822;2023-08-08T00:23:28;7.95;;;3.25;;
52776;SDS011;38656;54.260;20.822;2023-08-08T00:25:54;6.95;;;2.92;;
52776;SDS011;38656;54.260;20.822;2023-08-08T00:28:20;11.10;;;3.30;;
52776;SDS011;38656;54.260;20.822;2023-08-08T00:30:46;6.55;;;2.28;;
52776;SDS011;38656;54.260;20.822;2023-08-08T00:33:12;6.43;;;2.40;;
52776;SDS011;38656;54.260;20.822;2023-08-08T00:35:38;7.15;;;2.78;;
52776;SDS011;38656;54.260;20.822;2023-08-08T00:38:04;11.38;;;3.00;;
52776;SDS011;38656;54.260;20.822;2023-08-08T00:40:30;6.28;;;3.17;;
52776;SDS011;38656;54.260;20.822;2023-08-08T00:42:56;6.47;;;2.67;;
52776;SDS011;38656;54.260;20.822;2023-08-08T00:45:22;8.40;;;2.80;;
52776;SDS011;38656;54.260;20.822;2023-08-08T00:47:49;11.23;;;3.22;;
52776;SDS011;38656;54.260;20.822;2023-08-08T00:50:15;7.50;;;2.65;;
52776;SDS011;38656;54.260;20.822;2023-08-08T00:52:43;8.88;;;3.13;;
52776;SDS011;38656;54.260;20.822;2023-08-08T00:55:09;10.25;;;3.13;;
52776;SDS011;38656;54.260;20.822;2023-08-08T00:57:35;6.53;;;2.65;;
52776;SDS011;38656;54.260;20.822;2023-08-08T01:00:04;6.95;;;3.13;;
52776;SDS011;38656;54.260;20.822;2023-08-08T01:02:30;7.10;;;3.30;;
52776;SDS011;38656;54.260;20.822;2023-08-08T01:04:57;7.80;;;3.22;;
52776;SDS011;38656;54.260;20.822;2023-08-08T01:10:23;6.15;;;2.85;;
52776;SDS011;38656;54.260;20.822;2023-08-08T01:12:51;7.07;;;3.03;;
52776;SDS011;38656;54.260;20.822;2023-08-08T01:15:18;8.02;;;3.25;;
52776;SDS011;38656;54.260;20.822;2023-08-08T01:17:45;10.95;;;3.30;;
52776;SDS011;38656;54.260;20.822;2023-08-08T01:20:12;8.27;;;3.72;;
52776;SDS011;38656;54.260;20.822;2023-08-08T01:25:14;11.35;;;2.97;;
52776;SDS011;38656;54.260;20.822;2023-08-08T01:27:40;12.93;;;3.00;;
52776;SDS011;38656;54.260;20.822;2023-08-08T01:30:07;12.60;;;4.03;;
52776;SDS011;38656;54.260;20.822;2023-08-08T01:32:34;7.85;;;3.55;;
52776;SDS011;38656;54.260;20.822;2023-08-08T01:35:00;13.13;;;3.15;;
52776;SDS011;38656;54.260;20.822;2023-08-08T01:37:29;9.23;;;3.40;;
52776;SDS011;38656;54.260;20.822;2023-08-08T01:39:58;6.60;;;3.42;;
52776;SDS011;38656;54.260;20.822;2023-08-08T01:42:25;10.50;;;3.88;;
52776;SDS011;38656;54.260;20.822;2023-08-08T01:44:52;10.40;;;3.35;;
52776;SDS011;38656;54.260;20.822;2023-08-08T01:47:18;10.00;;;2.90;;
52776;SDS011;38656;54.260;20.822;2023-08-08T01:49:44;7.03;;;2.67;;
52776;SDS011;38656;54.260;20.822;2023-08-08T01:52:10;6.43;;;3.25;;
52776;SDS011;38656;54.260;20.822;2023-08-08T01:54:36;7.78;;;3.08;;
52776;SDS011;38656;54.260;20.822;2023-08-08T01:57:03;10.82;;;3.30;;
52776;SDS011;38656;54.260;20.822;2023-08-08T01:59:29;9.57;;;3.00;;
52776;SDS011;38656;54.260;20.822;2023-08-08T02:01:55;6.15;;;2.58;;
52776;SDS011;38656;54.260;20.822;2023-08-08T02:04:21;11.85;;;3.38;;
52776;SDS011;38656;54.260;20.822;2023-08-08T02:06:47;10.32;;;3.72;;
52776;SDS011;38656;54.260;20.822;2023-08-08T02:09:13;9.55;;;3.78;;
52776;SDS011;38656;54.260;20.822;2023-08-08T02:11:40;9.68;;;3.28;;
52776;SDS011;38656;54.260;20.822;2023-08-08T02:14:06;15.40;;;3.47;;
52776;SDS011;38656;54.260;20.822;2023-08-08T02:16:32;7.43;;;3.00;;
52776;SDS011;38656;54.260;20.822;2023-08-08T02:18:59;22.77;;;2.95;;
52776;SDS011;38656;54.260;20.822;2023-08-08T02:21:25;11.13;;;2.88;;
52776;SDS011;38656;54.260;20.822;2023-08-08T02:23:51;6.63;;;2.95;;
52776;SDS011;38656;54.260;20.822;2023-08-08T02:26:17;11.00;;;3.60;;
52776;SDS011;38656;54.260;20.822;2023-08-08T02:28:44;9.30;;;3.67;;
52776;SDS011;38656;54.260;20.822;2023-08-08T02:31:10;9.13;;;3.45;;
52776;SDS011;38656;54.260;20.822;2023-08-08T02:33:36;10.38;;;3.42;;
52776;SDS011;38656;54.260;20.822;2023-08-08T02:38:27;11.13;;;3.53;;
52776;SDS011;38656;54.260;20.822;2023-08-08T02:40:53;10.38;;;3.13;;
52776;SDS011;38656;54.260;20.822;2023-08-08T02:43:20;9.02;;;3.03;;
52776;SDS011;38656;54.260;20.822;2023-08-08T02:45:46;12.55;;;3.90;;
52776;SDS011;38656;54.260;20.822;2023-08-08T02:48:12;7.35;;;2.47;;
52776;SDS011;38656;54.260;20.822;2023-08-08T02:50:38;7.20;;;3.00;;
52776;SDS011;38656;54.260;20.822;2023-08-08T02:53:04;11.23;;;4.13;;
52776;SDS011;38656;54.260;20.822;2023-08-08T02:55:30;9.77;;;3.00;;
52776;SDS011;38656;54.260;20.822;2023-08-08T02:57:56;11.02;;;3.80;;
52776;SDS011;38656;54.260;20.822;2023-08-08T03:00:22;7.05;;;3.03;;
52776;SDS011;38656;54.260;20.822;2023-08-08T03:02:48;15.15;;;3.92;;
52776;SDS011;38656;54.260;20.822;2023-08-08T03:05:14;8.27;;;3.92;;
52776;SDS011;38656;54.260;20.822;2023-08-08T03:07:40;14.48;;;2.92;;
52776;SDS011;38656;54.260;20.822;2023-08-08T03:10:06;8.23;;;3.25;;
52776;SDS011;38656;54.260;20.822;2023-08-08T03:12:32;12.77;;;4.32;;
52776;SDS011;38656;54.260;20.822;2023-08-08T03:14:58;13.55;;;3.50;;
52776;SDS011;38656;54.260;20.822;2023-08-08T03:17:24;11.82;;;2.97;;
52776;SDS011;38656;54.260;20.822;2023-08-08T03:19:50;14.85;;;3.50;;
52776;SDS011;38656;54.260;20.822;2023-08-08T03:22:16;11.02;;;3.33;;
52776;SDS011;38656;54.260;20.822;2023-08-08T03:24:42;9.95;;;3.83;;
52776;SDS011;38656;54.260;20.822;2023-08-08T03:27:08;13.88;;;4.25;;
52776;SDS011;38656;54.260;20.822;2023-08-08T03:29:34;9.77;;;3.22;;
52776;SDS011;38656;54.260;20.822;2023-08-08T03:32:00;7.70;;;3.55;;
52776;SDS011;38656;54.260;20.822;2023-08-08T03:34:26;13.05;;;4.20;;
52776;SDS011;38656;54.260;20.822;2023-08-08T03:36:53;11.55;;;3.28;;
52776;SDS011;38656;54.260;20.822;2023-08-08T03:39:19;15.23;;;2.75;;
52776;SDS011;38656;54.260;20.822;2023-08-08T03:41:45;11.93;;;4.32;;
52776;SDS011;38656;54.260;20.822;2023-08-08T03:44:12;15.82;;;3.55;;
52776;SDS011;38656;54.260;20.822;2023-08-08T03:46:38;11.60;;;3.45;;
52776;SDS011;38656;54.260;20.822;2023-08-08T03:49:04;17.85;;;3.67;;
52776;SDS011;38656;54.260;20.822;2023-08-08T03:51:30;11.70;;;3.08;;
52776;SDS011;38656;54.260;20.822;2023-08-08T03:53:56;11.98;;;3.92;;
52776;SDS011;38656;54.260;20.822;2023-08-08T03:56:22;11.75;;;3.90;;
52776;SDS011;38656;54.260;20.822;2023-08-08T03:58:48;15.60;;;4.85;;
52776;SDS011;38656;54.260;20.822;2023-08-08T04:01:14;8.32;;;3.70;;
52776;SDS011;38656;54.260;20.822;2023-08-08T04:03:40;8.40;;;3.95;;
52776;SDS011;38656;54.260;20.822;2023-08-08T04:06:06;7.85;;;3.30;;
52776;SDS011;38656;54.260;20.822;2023-08-08T04:08:32;13.85;;;3.53;;
52776;SDS011;38656;54.260;20.822;2023-08-08T04:10:58;9.70;;;4.22;;
52776;SDS011;38656;54.260;20.822;2023-08-08T04:13:24;15.73;;;4.20;;
52776;SDS011;38656;54.260;20.822;2023-08-08T04:15:50;9.07;;;3.38;;
52776;SDS011;38656;54.260;20.822;2023-08-08T04:18:17;12.27;;;5.25;;
52776;SDS011;38656;54.260;20.822;2023-08-08T04:20:44;10.30;;;3.55;;
52776;SDS011;38656;54.260;20.822;2023-08-08T04:23:11;13.30;;;4.43;;
52776;SDS011;38656;54.260;20.822;2023-08-08T04:25:37;12.60;;;3.60;;
52776;SDS011;38656;54.260;20.822;2023-08-08T04:28:03;12.57;;;3.92;;
52776;SDS011;38656;54.260;20.822;2023-08-08T04:30:29;10.50;;;3.35;;
52776;SDS011;38656;54.260;20.822;2023-08-08T04:32:55;15.68;;;4.40;;
52776;SDS011;38656;54.260;20.822;2023-08-08T04:35:21;17.27;;;4.65;;
52776;SDS011;38656;54.260;20.822;2023-08-08T04:37:47;17.20;;;2.95;;
52776;SDS011;38656;54.260;20.822;2023-08-08T04:40:13;9.38;;;3.70;;
52776;SDS011;38656;54.260;20.822;2023-08-08T04:42:39;15.90;;;3.67;;
52776;SDS011;38656;54.260;20.822;2023-08-08T04:45:05;8.18;;;4.75;;
52776;SDS011;38656;54.260;20.822;2023-08-08T04:47:32;10.75;;;3.53;;
52776;SDS011;38656;54.260;20.822;2023-08-08T04:49:58;11.02;;;3.00;;
52776;SDS011;38656;54.260;20.822;2023-08-08T04:52:24;7.75;;;3.45;;
52776;SDS011;38656;54.260;20.822;2023-08-08T04:54:50;13.82;;;3.85;;
52776;SDS011;38656;54.260;20.822;2023-08-08T04:57:16;10.18;;;4.05;;
52776;SDS011;38656;54.260;20.822;2023-08-08T04:59:42;10.85;;;3.60;;
52776;SDS011;38656;54.260;20.822;2023-08-08T05:02:08;11.75;;;4.18;;
52776;SDS011;38656;54.260;20.822;2023-08-08T05:04:34;9.95;;;3.72;;
52776;SDS011;38656;54.260;20.822;2023-08-08T05:07:00;11.48;;;4.32;;
52776;SDS011;38656;54.260;20.822;2023-08-08T05:09:26;10.77;;;4.50;;
52776;SDS011;38656;54.260;20.822;2023-08-08T05:11:52;6.82;;;3.42;;
52776;SDS011;38656;54.260;20.822;2023-08-08T05:14:19;12.77;;;3.58;;
52776;SDS011;38656;54.260;20.822;2023-08-08T05:16:45;11.10;;;4.20;;
52776;SDS011;38656;54.260;20.822;2023-08-08T05:19:11;11.88;;;4.40;;
52776;SDS011;38656;54.260;20.822;2023-08-08T05:21:37;10.57;;;3.10;;
52776;SDS011;38656;54.260;20.822;2023-08-08T05:24:03;10.57;;;4.15;;
52776;SDS011;38656;54.260;20.822;2023-08-08T05:26:29;12.10;;;3.70;;
52776;SDS011;38656;54.260;20.822;2023-08-08T05:28:55;12.30;;;3.88;;
52776;SDS011;38656;54.260;20.822;2023-08-08T05:31:21;9.13;;;4.43;;
52776;SDS011;38656;54.260;20.822;2023-08-08T05:33:50;9.93;;;4.63;;
52776;SDS011;38656;54.260;20.822;2023-08-08T05:36:16;8.20;;;2.80;;
52776;SDS011;38656;54.260;20.822;2023-08-08T05:38:42;9.55;;;4.05;;
52776;SDS011;38656;54.260;20.822;2023-08-08T05:41:08;6.28;;;3.72;;
52776;SDS011;38656;54.260;20.822;2023-08-08T05:43:34;13.15;;;6.20;;
52776;SDS011;38656;54.260;20.822;2023-08-08T05:46:01;20.30;;;4.15;;
52776;SDS011;38656;54.260;20.822;2023-08-08T05:48:27;9.18;;;4.07;;
52776;SDS011;38656;54.260;20.822;2023-08-08T05:50:53;12.90;;;4.00;;
52776;SDS011;38656;54.260;20.822;2023-08-08T05:53:19;16.48;;;8.82;;
52776;SDS011;38656;54.260;20.822;2023-08-08T05:55:45;13.43;;;5.18;;
52776;SDS011;38656;54.260;20.822;2023-08-08T05:58:11;10.70;;;4.85;;
52776;SDS011;38656;54.260;20.822;2023-08-08T06:00:37;12.63;;;6.15;;
52776;SDS011;38656;54.260;20.822;2023-08-08T06:03:04;9.05;;;4.63;;
52776;SDS011;38656;54.260;20.822;2023-08-08T06:05:30;13.52;;;5.88;;
52776;SDS011;38656;54.260;20.822;2023-08-08T06:07:56;9.65;;;3.78;;
52776;SDS011;38656;54.260;20.822;2023-08-08T06:10:22;10.93;;;4.80;;
52776;SDS011;38656;54.260;20.822;2023-08-08T06:12:50;11.55;;;5.85;;
52776;SDS011;38656;54.260;20.822;2023-08-08T06:15:16;11.57;;;4.13;;
52776;SDS011;38656;54.260;20.822;2023-08-08T06:17:42;7.65;;;4.00;;
52776;SDS011;38656;54.260;20.822;2023-08-08T06:20:08;7.65;;;3.97;;
52776;SDS011;38656;54.260;20.822;2023-08-08T06:22:36;8.80;;;4.82;;
52776;SDS011;38656;54.260;20.822;2023-08-08T06:25:02;6.93;;;3.75;;
52776;SDS011;38656;54.260;20.822;2023-08-08T06:27:28;7.13;;;3.35;;
52776;SDS011;38656;54.260;20.822;2023-08-08T06:29:54;11.43;;;5.22;;
52776;SDS011;38656;54.260;20.822;2023-08-08T06:32:21;12.52;;;4.05;;
52776;SDS011;38656;54.260;20.822;2023-08-08T06:34:47;13.57;;;5.32;;
52776;SDS011;38656;54.260;20.822;2023-08-08T06:37:13;9.98;;;4.30;;
52776;SDS011;38656;54.260;20.822;2023-08-08T06:39:39;8.98;;;3.15;;
52776;SDS011;38656;54.260;20.822;2023-08-08T06:42:05;9.52;;;3.58;;
52776;SDS011;38656;54.260;20.822;2023-08-08T06:44:32;8.50;;;3.70;;
52776;SDS011;38656;54.260;20.822;2023-08-08T06:46:58;8.25;;;3.53;;
52776;SDS011;38656;54.260;20.822;2023-08-08T06:49:24;6.80;;;2.95;;
52776;SDS011;38656;54.260;20.822;2023-08-08T06:51:50;6.70;;;4.03;;
52776;SDS011;38656;54.260;20.822;2023-08-08T06:54:16;9.40;;;3.92;;
52776;SDS011;38656;54.260;20.822;2023-08-08T06:56:43;7.88;;;3.15;;
52776;SDS011;38656;54.260;20.822;2023-08-08T06:59:09;8.02;;;3.38;;
52776;SDS011;38656;54.260;20.822;2023-08-08T07:01:35;7.10;;;3.22;;
52776;SDS011;38656;54.260;20.822;2023-08-08T07:04:01;7.63;;;3.30;;
52776;SDS011;38656;54.260;20.822;2023-08-08T07:06:27;8.70;;;2.97;;
52776;SDS011;38656;54.260;20.822;2023-08-08T07:08:53;8.73;;;3.33;;
52776;SDS011;38656;54.260;20.822;2023-08-08T07:11:19;16.00;;;3.15;;
52776;SDS011;38656;54.260;20.822;2023-08-08T07:13:45;8.98;;;3.03;;
52776;SDS011;38656;54.260;20.822;2023-08-08T07:16:11;11.65;;;3.28;;
52776;SDS011;38656;54.260;20.822;2023-08-08T07:18:37;8.13;;;3.45;;
52776;SDS011;38656;54.260;20.822;2023-08-08T07:21:03;5.95;;;3.30;;
52776;SDS011;38656;54.260;20.822;2023-08-08T07:23:30;19.38;;;4.88;;
52776;SDS011;38656;54.260;20.822;2023-08-08T07:25:56;10.55;;;4.03;;
52776;SDS011;38656;54.260;20.822;2023-08-08T07:28:22;10.60;;;3.20;;
52776;SDS011;38656;54.260;20.822;2023-08-08T07:30:48;4.15;;;2.45;;
52776;SDS011;38656;54.260;20.822;2023-08-08T07:33:15;7.38;;;2.67;;
52776;SDS011;38656;54.260;20.822;2023-08-08T07:35:41;4.63;;;2.72;;
52776;SDS011;38656;54.260;20.822;2023-08-08T07:38:07;9.43;;;3.20;;
52776;SDS011;38656;54.260;20.822;2023-08-08T07:40:33;11.68;;;3.85;;
52776;SDS011;38656;54.260;20.822;2023-08-08T07:42:59;8.18;;;2.28;;
52776;SDS011;38656;54.260;20.822;2023-08-08T07:45:25;7.60;;;2.72;;
52776;SDS011;38656;54.260;20.822;2023-08-08T07:47:51;6.25;;;2.67;;
52776;SDS011;38656;54.260;20.822;2023-08-08T07:50:17;7.65;;;3.53;;
52776;SDS011;38656;54.260;20.822;2023-08-08T07:52:43;5.65;;;2.92;;
52776;SDS011;38656;54.260;20.822;2023-08-08T07:55:09;9.27;;;3.15;;
52776;SDS011;38656;54.260;20.822;2023-08-08T07:57:36;12.77;;;3.17;;
52776;SDS011;38656;54.260;20.822;2023-08-08T08:00:02;7.05;;;2.90;;
52776;SDS011;38656;54.260;20.822;2023-08-08T08:02:36;18.83;;;3.00;;
52776;SDS011;38656;54.260;20.822;2023-08-08T08:05:02;6.90;;;2.42;;
52776;SDS011;38656;54.260;20.822;2023-08-08T08:07:33;7.63;;;2.72;;
52776;SDS011;38656;54.260;20.822;2023-08-08T08:09:59;15.27;;;2.50;;
52776;SDS011;38656;54.260;20.822;2023-08-08T08:12:25;8.15;;;2.95;;
52776;SDS011;38656;54.260;20.822;2023-08-08T08:14:51;11.77;;;3.95;;
52776;SDS011;38656;54.260;20.822;2023-08-08T08:17:17;5.38;;;2.50;;
52776;SDS011;38656;54.260;20.822;2023-08-08T08:19:44;8.77;;;2.88;;
52776;SDS011;38656;54.260;20.822;2023-08-08T08:22:10;9.68;;;2.83;;
52776;SDS011;38656;54.260;20.822;2023-08-08T08:24:36;6.88;;;2.58;;
52776;SDS011;38656;54.260;20.822;2023-08-08T08:27:02;8.43;;;3.10;;
52776;SDS011;38656;54.260;20.822;2023-08-08T08:29:28;6.93;;;3.10;;
52776;SDS011;38656;54.260;20.822;2023-08-08T08:31:54;8.20;;;2.45;;
52776;SDS011;38656;54.260;20.822;2023-08-08T08:34:20;5.97;;;2.22;;
52776;SDS011;38656;54.260;20.822;2023-08-08T08:36:46;15.35;;;3.50;;
52776;SDS011;38656;54.260;20.822;2023-08-08T08:39:12;5.57;;;2.70;;
52776;SDS011;38656;54.260;20.822;2023-08-08T08:41:38;8.85;;;2.92;;
52776;SDS011;38656;54.260;20.822;2023-08-08T08:44:07;10.40;;;2.47;;
52776;SDS011;38656;54.260;20.822;2023-08-08T08:46:34;22.55;;;5.32;;
52776;SDS011;38656;54.260;20.822;2023-08-08T08:49:05;10.20;;;2.80;;
52776;SDS011;38656;54.260;20.822;2023-08-08T08:51:34;8.60;;;2.90;;
52776;SDS011;38656;54.260;20.822;2023-08-08T08:54:00;4.65;;;2.63;;
52776;SDS011;38656;54.260;20.822;2023-08-08T08:56:27;11.88;;;4.18;;
52776;SDS011;38656;54.260;20.822;2023-08-08T08:58:53;8.40;;;2.78;;
52776;SDS011;38656;54.260;20.822;2023-08-08T09:01:20;5.95;;;2.50;;
52776;SDS011;38656;54.260;20.822;2023-08-08T09:03:47;5.75;;;2.53;;
52776;SDS011;38656;54.260;20.822;2023-08-08T09:06:13;5.97;;;2.33;;
52776;SDS011;38656;54.260;20.822;2023-08-08T09:08:41;5.53;;;2.63;;
52776;SDS011;38656;54.260;20.822;2023-08-08T09:11:07;6.13;;;3.70;;
52776;SDS011;38656;54.260;20.822;2023-08-08T09:13:37;5.28;;;2.85;;
52776;SDS011;38656;54.260;20.822;2023-08-08T09:16:06;8.68;;;2.83;;
52776;SDS011;38656;54.260;20.822;2023-08-08T09:18:37;5.45;;;2.45;;
52776;SDS011;38656;54.260;20.822;2023-08-08T09:21:04;7.65;;;2.85;;
52776;SDS011;38656;54.260;20.822;2023-08-08T09:23:30;7.95;;;3.05;;
52776;SDS011;38656;54.260;20.822;2023-08-08T09:25:56;8.70;;;2.30;;
52776;SDS011;38656;54.260;20.822;2023-08-08T09:28:23;4.07;;;2.20;;
52776;SDS011;38656;54.260;20.822;2023-08-08T09:30:49;7.90;;;2.60;;
52776;SDS011;38656;54.260;20.822;2023-08-08T09:33:17;14.82;;;3.72;;
52776;SDS011;38656;54.260;20.822;2023-08-08T09:35:43;8.05;;;2.65;;
52776;SDS011;38656;54.260;20.822;2023-08-08T09:38:10;10.23;;;2.28;;
52776;SDS011;38656;54.260;20.822;2023-08-08T09:40:36;9.48;;;2.65;;
52776;SDS011;38656;54.260;20.822;2023-08-08T09:43:02;8.35;;;3.95;;
52776;SDS011;38656;54.260;20.822;2023-08-08T09:45:38;10.15;;;3.65;;
52776;SDS011;38656;54.260;20.822;2023-08-08T09:48:06;9.93;;;3.63;;
52776;SDS011;38656;54.260;20.822;2023-08-08T09:50:33;7.78;;;3.35;;
52776;SDS011;38656;54.260;20.822;2023-08-08T09:52:59;7.38;;;2.50;;
52776;SDS011;38656;54.260;20.822;2023-08-08T09:55:27;9.55;;;2.50;;
52776;SDS011;38656;54.260;20.822;2023-08-08T09:57:54;7.22;;;2.58;;
52776;SDS011;38656;54.260;20.822;2023-08-08T10:00:20;7.05;;;2.58;;
52776;SDS011;38656;54.260;20.822;2023-08-08T10:02:46;11.88;;;2.53;;
52776;SDS011;38656;54.260;20.822;2023-08-08T10:05:13;9.05;;;2.83;;
52776;SDS011;38656;54.260;20.822;2023-08-08T10:07:42;7.43;;;3.35;;
52776;SDS011;38656;54.260;20.822;2023-08-08T10:10:09;6.43;;;2.42;;
52776;SDS011;38656;54.260;20.822;2023-08-08T10:12:41;3.53;;;2.22;;
52776;SDS011;38656;54.260;20.822;2023-08-08T10:15:10;7.15;;;3.28;;
52776;SDS011;38656;54.260;20.822;2023-08-08T10:17:37;6.55;;;2.50;;
52776;SDS011;38656;54.260;20.822;2023-08-08T10:20:03;11.27;;;2.88;;
52776;SDS011;38656;54.260;20.822;2023-08-08T10:22:37;8.68;;;3.15;;
52776;SDS011;38656;54.260;20.822;2023-08-08T10:25:03;7.45;;;2.97;;
52776;SDS011;38656;54.260;20.822;2023-08-08T10:27:34;10.15;;;3.28;;
52776;SDS011;38656;54.260;20.822;2023-08-08T10:30:09;6.75;;;2.65;;
52776;SDS011;38656;54.260;20.822;2023-08-08T10:32:40;7.18;;;2.75;;
52776;SDS011;38656;54.260;20.822;2023-08-08T10:35:07;3.80;;;1.88;;
52776;SDS011;38656;54.260;20.822;2023-08-08T10:37:34;4.13;;;1.98;;
52776;SDS011;38656;54.260;20.822;2023-08-08T10:40:01;5.10;;;2.45;;
52776;SDS011;38656;54.260;20.822;2023-08-08T10:42:43;9.77;;;3.33;;
52776;SDS011;38656;54.260;20.822;2023-08-08T10:45:10;11.55;;;2.40;;
52776;SDS011;38656;54.260;20.822;2023-08-08T10:47:37;7.90;;;2.47;;
52776;SDS011;38656;54.260;20.822;2023-08-08T10:50:11;6.88;;;3.10;;
52776;SDS011;38656;54.260;20.822;2023-08-08T10:52:38;4.97;;;2.22;;
52776;SDS011;38656;54.260;20.822;2023-08-08T10:55:04;6.53;;;2.05;;
52776;SDS011;38656;54.260;20.822;2023-08-08T10:57:31;7.10;;;2.50;;
52776;SDS011;38656;54.260;20.822;2023-08-08T11:00:15;3.53;;;2.10;;
52776;SDS011;38656;54.260;20.822;2023-08-08T11:02:42;7.25;;;2.80;;
52776;SDS011;38656;54.260;20.822;2023-08-08T11:05:08;5.82;;;2.17;;
52776;SDS011;38656;54.260;20.822;2023-08-08T11:07:35;6.85;;;2.90;;
52776;SDS011;38656;54.260;20.822;2023-08-08T11:10:02;4.70;;;2.35;;
52776;SDS011;38656;54.260;20.822;2023-08-08T11:12:29;4.95;;;2.60;;
52776;SDS011;38656;54.260;20.822;2023-08-08T11:14:55;7.15;;;3.10;;
52776;SDS011;38656;54.260;20.822;2023-08-08T11:17:21;4.57;;;2.50;;
52776;SDS011;38656;54.260;20.822;2023-08-08T11:19:47;3.03;;;2.10;;
52776;SDS011;38656;54.260;20.822;2023-08-08T11:22:13;5.13;;;3.00;;
52776;SDS011;38656;54.260;20.822;2023-08-08T11:24:39;5.20;;;2.60;;
52776;SDS011;38656;54.260;20.822;2023-08-08T11:27:05;5.72;;;2.30;;
52776;SDS011;38656;54.260;20.822;2023-08-08T11:29:31;4.78;;;2.38;;
52776;SDS011;38656;54.260;20.822;2023-08-08T11:31:59;3.45;;;2.10;;
52776;SDS011;38656;54.260;20.822;2023-08-08T11:34:29;5.18;;;2.60;;
52776;SDS011;38656;54.260;20.822;2023-08-08T11:36:55;6.68;;;2.25;;
52776;SDS011;38656;54.260;20.822;2023-08-08T11:39:23;5.93;;;2.80;;
52776;SDS011;38656;54.260;20.822;2023-08-08T11:41:49;3.60;;;2.40;;
52776;SDS011;38656;54.260;20.822;2023-08-08T11:44:16;3.35;;;1.67;;
52776;SDS011;38656;54.260;20.822;2023-08-08T11:46:45;4.20;;;2.40;;
52776;SDS011;38656;54.260;20.822;2023-08-08T11:49:13;4.15;;;2.38;;
52776;SDS011;38656;54.260;20.822;2023-08-08T11:51:39;4.10;;;2.35;;
52776;SDS011;38656;54.260;20.822;2023-08-08T11:54:05;8.02;;;2.35;;
52776;SDS011;38656;54.260;20.822;2023-08-08T11:56:34;5.18;;;2.50;;
52776;SDS011;38656;54.260;20.822;2023-08-08T11:59:01;5.57;;;2.75;;
52776;SDS011;38656;54.260;20.822;2023-08-08T12:01:27;3.65;;;2.75;;
52776;SDS011;38656;54.260;20.822;2023-08-08T12:03:54;8.07;;;2.58;;
52776;SDS011;38656;54.260;20.822;2023-08-08T12:06:20;7.18;;;2.28;;
52776;SDS011;38656;54.260;20.822;2023-08-08T12:08:46;4.47;;;2.15;;
52776;SDS011;38656;54.260;20.822;2023-08-08T12:11:13;6.60;;;2.85;;
52776;SDS011;38656;54.260;20.822;2023-08-08T12:13:40;3.22;;;1.88;;
52776;SDS011;38656;54.260;20.822;2023-08-08T12:16:10;4.03;;;2.47;;
52776;SDS011;38656;54.260;20.822;2023-08-08T12:18:37;8.00;;;2.10;;
52776;SDS011;38656;54.260;20.822;2023-08-08T12:21:07;2.92;;;1.98;;
52776;SDS011;38656;54.260;20.822;2023-08-08T12:23:33;3.80;;;2.15;;
52776;SDS011;38656;54.260;20.822;2023-08-08T12:26:00;8.43;;;2.78;;
52776;SDS011;38656;54.260;20.822;2023-08-08T12:28:26;2.85;;;1.98;;
52776;SDS011;38656;54.260;20.822;2023-08-08T12:30:52;4.03;;;2.35;;
52776;SDS011;38656;54.260;20.822;2023-08-08T12:33:18;2.67;;;1.85;;
52776;SDS011;38656;54.260;20.822;2023-08-08T12:35:47;2.83;;;2.30;;
52776;SDS011;38656;54.260;20.822;2023-08-08T12:38:14;8.30;;;2.50;;
52776;SDS011;38656;54.260;20.822;2023-08-08T12:40:40;4.45;;;2.00;;
52776;SDS011;38656;54.260;20.822;2023-08-08T12:43:06;7.85;;;2.30;;
52776;SDS011;38656;54.260;20.822;2023-08-08T12:45:32;13.45;;;2.47;;
52776;SDS011;38656;54.260;20.822;2023-08-08T12:47:58;2.60;;;2.08;;
52776;SDS011;38656;54.260;20.822;2023-08-08T12:50:24;4.75;;;2.15;;
52776;SDS011;38656;54.260;20.822;2023-08-08T12:52:50;6.82;;;2.28;;
52776;SDS011;38656;54.260;20.822;2023-08-08T12:55:16;1.85;;;1.42;;
52776;SDS011;38656;54.260;20.822;2023-08-08T12:57:43;6.75;;;2.95;;
52776;SDS011;38656;54.260;20.822;2023-08-08T13:00:10;5.57;;;1.88;;
52776;SDS011;38656;54.260;20.822;2023-08-08T13:02:37;4.50;;;1.92;;
52776;SDS011;38656;54.260;20.822;2023-08-08T13:05:04;9.40;;;2.47;;
52776;SDS011;38656;54.260;20.822;2023-08-08T13:07:32;4.35;;;1.98;;
52776;SDS011;38656;54.260;20.822;2023-08-08T13:09:59;4.63;;;2.00;;
52776;SDS011;38656;54.260;20.822;2023-08-08T13:12:25;8.35;;;2.25;;
52776;SDS011;38656;54.260;20.822;2023-08-08T13:14:51;8.02;;;2.15;;
52776;SDS011;38656;54.260;20.822;2023-08-08T13:17:17;5.97;;;2.05;;
52776;SDS011;38656;54.260;20.822;2023-08-08T13:19:43;7.32;;;2.10;;
52776;SDS011;38656;54.260;20.822;2023-08-08T13:22:09;3.60;;;2.17;;
52776;SDS011;38656;54.260;20.822;2023-08-08T13:24:35;2.97;;;1.90;;
52776;SDS011;38656;54.260;20.822;2023-08-08T13:27:01;3.08;;;1.73;;
52776;SDS011;38656;54.260;20.822;2023-08-08T13:29:27;6.63;;;2.55;;
52776;SDS011;38656;54.260;20.822;2023-08-08T13:31:53;3.80;;;2.10;;
52776;SDS011;38656;54.260;20.822;2023-08-08T13:34:19;6.78;;;1.90;;
52776;SDS011;38656;54.260;20.822;2023-08-08T13:36:45;7.63;;;1.95;;
52776;SDS011;38656;54.260;20.822;2023-08-08T13:39:11;3.40;;;2.08;;
52776;SDS011;38656;54.260;20.822;2023-08-08T13:41:38;2.05;;;1.50;;
52776;SDS011;38656;54.260;20.822;2023-08-08T13:44:04;7.80;;;2.35;;
52776;SDS011;38656;54.260;20.822;2023-08-08T13:46:30;3.80;;;1.85;;
52776;SDS011;38656;54.260;20.822;2023-08-08T13:48:57;6.07;;;2.67;;
52776;SDS011;38656;54.260;20.822;2023-08-08T13:51:23;5.20;;;2.20;;
52776;SDS011;38656;54.260;20.822;2023-08-08T13:53:49;9.15;;;2.45;;
52776;SDS011;38656;54.260;20.822;2023-08-08T13:56:15;5.20;;;2.40;;
52776;SDS011;38656;54.260;20.822;2023-08-08T13:58:41;4.10;;;1.80;;
52776;SDS011;38656;54.260;20.822;2023-08-08T14:01:07;6.00;;;2.03;;
52776;SDS011;38656;54.260;20.822;2023-08-08T14:03:33;6.28;;;2.25;;
52776;SDS011;38656;54.260;20.822;2023-08-08T14:05:59;4.05;;;2.17;;
52776;SDS011;38656;54.260;20.822;2023-08-08T14:08:25;7.97;;;1.80;;
52776;SDS011;38656;54.260;20.822;2023-08-08T14:10:51;4.10;;;2.10;;
52776;SDS011;38656;54.260;20.822;2023-08-08T14:13:17;8.30;;;2.47;;
52776;SDS011;38656;54.260;20.822;2023-08-08T14:15:44;8.85;;;2.28;;
52776;SDS011;38656;54.260;20.822;2023-08-08T14:18:10;3.67;;;1.98;;
52776;SDS011;38656;54.260;20.822;2023-08-08T14:20:36;3.33;;;2.30;;
52776;SDS011;38656;54.260;20.822;2023-08-08T14:23:03;6.68;;;2.03;;
52776;SDS011;38656;54.260;20.822;2023-08-08T14:25:29;5.65;;;1.77;;
52776;SDS011;38656;54.260;20.822;2023-08-08T14:27:55;5.88;;;1.60;;
52776;SDS011;38656;54.260;20.822;2023-08-08T14:30:22;3.22;;;1.65;;
52776;SDS011;38656;54.260;20.822;2023-08-08T14:32:50;3.47;;;1.60;;
52776;SDS011;38656;54.260;20.822;2023-08-08T14:35:16;3.72;;;2.22;;